createdAt,value
2022-12-09T00:00:23.650Z,95078.44
2022-12-09T00:02:57.015Z,95091.81
2022-12-09T00:05:30.568Z,95075.16
2022-12-09T00:08:03.554Z,95071.72
2022-12-09T00:10:37.834Z,95069.09
2022-12-09T00:13:12.253Z,95063.44
2022-12-09T00:15:46.889Z,95060.34
2022-12-09T00:18:20.411Z,95053.34
2022-12-09T00:20:53.931Z,95057.44
2022-12-09T00:23:26.936Z,95060.75
2022-12-09T00:26:00.021Z,95070.75
2022-12-09T00:28:34.750Z,95087.63
2022-12-09T00:31:09.204Z,95083.16
2022-12-09T00:33:42.420Z,95082.13
2022-12-09T00:36:17.014Z,95078.41
2022-12-09T00:38:50.734Z,95086.09
2022-12-09T00:41:23.977Z,95081.72
2022-12-09T00:43:59.405Z,95086.13
2022-12-09T00:46:32.646Z,95083.34
2022-12-09T00:49:06.522Z,95084.28
2022-12-09T00:51:39.675Z,95077.00
2022-12-09T00:54:13.217Z,95085.25
2022-12-09T00:56:46.115Z,95085.09
2022-12-09T00:59:20.529Z,95079.03
2022-12-09T01:01:54.936Z,95072.06
2022-12-09T01:04:28.509Z,95064.91
2022-12-09T01:07:02.013Z,95066.00
2022-12-09T01:09:35.618Z,95069.41
2022-12-09T01:12:09.245Z,95061.00
2022-12-09T01:14:43.762Z,95053.53
2022-12-09T01:17:16.776Z,95045.91
2022-12-09T01:19:52.601Z,95044.03
2022-12-09T01:22:30.097Z,95039.19
2022-12-09T01:25:03.550Z,95027.50
2022-12-09T01:27:37.079Z,95028.72
2022-12-09T01:30:14.191Z,95026.22
2022-12-09T01:32:47.275Z,95019.84
2022-12-09T01:35:20.671Z,95022.50
2022-12-09T01:37:54.114Z,95028.25
2022-12-09T01:40:27.485Z,95030.56
2022-12-09T01:43:00.370Z,95028.69
2022-12-09T01:45:42.257Z,95030.56
2022-12-09T01:48:18.660Z,95030.13
2022-12-09T01:50:55.553Z,95017.81
2022-12-09T01:53:31.660Z,95016.16
2022-12-09T01:56:10.696Z,95007.28
2022-12-09T01:58:44.734Z,95004.84
2022-12-09T02:01:20.022Z,95002.81
2022-12-09T02:03:53.379Z,94987.91
2022-12-09T02:06:27.482Z,94986.22
2022-12-09T02:09:00.731Z,94978.16
2022-12-09T02:11:46.186Z,94967.09
2022-12-09T02:14:26.435Z,94986.56
2022-12-09T02:17:17.060Z,94984.91
2022-12-09T02:20:01.806Z,94987.72
2022-12-09T02:22:39.764Z,94980.13
2022-12-09T02:25:29.601Z,94975.59
2022-12-09T02:28:24.834Z,94967.31
2022-12-09T02:31:11.518Z,94967.00
2022-12-09T02:34:02.560Z,94963.72
2022-12-09T02:36:48.600Z,94950.19
2022-12-09T02:39:26.092Z,94942.25
2022-12-09T02:42:07.850Z,94939.72
2022-12-09T02:44:42.057Z,94938.94
2022-12-09T02:47:18.429Z,94942.84
2022-12-09T02:49:55.870Z,94935.66
2022-12-09T02:52:30.911Z,94931.63
2022-12-09T02:55:07.714Z,94931.63
2022-12-09T02:57:42.008Z,94935.50
2022-12-09T03:00:16.958Z,94927.56
2022-12-09T03:02:55.464Z,94924.25
2022-12-09T03:05:42.953Z,94917.09
2022-12-09T03:08:24.154Z,94917.09
2022-12-09T03:11:01.380Z,94902.44
2022-12-09T03:13:48.066Z,94901.66
2022-12-09T03:16:26.891Z,94893.28
2022-12-09T03:19:05.343Z,94893.78
2022-12-09T03:21:45.548Z,94894.88
2022-12-09T03:24:21.607Z,94894.31
2022-12-09T03:26:55.868Z,94884.69
2022-12-09T03:29:32.216Z,94880.16
2022-12-09T03:32:08.401Z,94877.06
2022-12-09T03:34:45.453Z,94875.66
2022-12-09T03:37:22.552Z,94868.81
2022-12-09T03:39:59.197Z,94865.38
2022-12-09T03:42:39.044Z,94870.81
2022-12-09T03:45:13.599Z,94849.50
2022-12-09T03:47:46.882Z,94856.03
2022-12-09T03:50:21.901Z,94861.31
2022-12-09T03:53:04.422Z,94851.19
2022-12-09T03:55:45.156Z,94851.19
2022-12-09T03:58:18.698Z,94844.34
2022-12-09T04:00:52.749Z,94837.19
2022-12-09T04:03:26.055Z,94841.41
2022-12-09T04:05:59.438Z,94823.97
2022-12-09T04:08:34.921Z,94823.19
2022-12-09T04:11:07.859Z,94822.75
2022-12-09T04:13:40.809Z,94820.72
2022-12-09T04:16:13.654Z,94808.47
2022-12-09T04:18:47.580Z,94809.56
2022-12-09T04:21:20.915Z,94802.72
2022-12-09T04:23:55.173Z,94811.44
2022-12-09T04:26:28.411Z,94812.06
2022-12-09T04:29:02.478Z,94806.78
2022-12-09T04:31:35.876Z,94804.91
2022-12-09T04:34:10.047Z,94807.69
2022-12-09T04:36:43.764Z,94810.34
2022-12-09T04:39:19.511Z,94802.56
2022-12-09T04:41:52.423Z,94803.75
2022-12-09T04:44:25.378Z,94799.69
2022-12-09T04:46:58.591Z,94793.78
2022-12-09T04:49:32.319Z,94788.59
2022-12-09T04:52:05.467Z,94789.81
2022-12-09T04:54:39.896Z,94789.50
2022-12-09T04:57:13.235Z,94782.78
2022-12-09T04:59:46.510Z,94787.75
2022-12-09T05:02:19.852Z,94776.84
2022-12-09T05:04:53.267Z,94776.84
2022-12-09T05:07:26.349Z,94775.41
2022-12-09T05:10:02.219Z,94772.78
2022-12-09T05:12:36.085Z,94768.25
2022-12-09T05:15:10.370Z,94761.41
2022-12-09T05:17:43.720Z,94769.34
2022-12-09T05:20:17.095Z,94771.69
2022-12-09T05:22:53.801Z,94767.16
2022-12-09T05:25:28.723Z,94768.25
2022-12-09T05:28:01.666Z,94771.69
2022-12-09T05:30:34.748Z,94774.31
2022-12-09T05:33:08.397Z,94769.34
2022-12-09T05:35:52.240Z,94769.47
2022-12-09T05:38:27.597Z,94774.00
2022-12-09T05:41:02.276Z,94767.59
2022-12-09T05:43:36.869Z,94767.94
2022-12-09T05:46:10.335Z,94776.66
2022-12-09T05:48:44.327Z,94775.22
2022-12-09T05:51:24.804Z,94772.25
2022-12-09T05:53:59.038Z,94772.88
2022-12-09T05:56:34.509Z,94782.38
2022-12-09T05:59:07.750Z,94775.53
2022-12-09T06:01:41.393Z,94786.13
2022-12-09T06:04:14.655Z,94782.69
2022-12-09T06:06:48.264Z,94781.16
2022-12-09T06:09:21.935Z,94782.28
2022-12-09T06:11:56.928Z,94782.59
2022-12-09T06:14:30.843Z,94777.94
2022-12-09T06:17:03.938Z,94766.91
2022-12-09T06:19:37.051Z,94772.53
2022-12-09T06:22:12.742Z,94775.50
2022-12-09T06:24:49.961Z,94769.75
2022-12-09T06:27:27.113Z,94762.91
2022-12-09T06:30:00.753Z,94757.94
2022-12-09T06:32:34.449Z,94755.97
2022-12-09T06:35:08.781Z,94750.53
2022-12-09T06:37:43.626Z,94751.94
2022-12-09T06:40:16.967Z,94758.69
2022-12-09T06:42:54.928Z,94747.63
2022-12-09T06:45:28.205Z,94746.72
2022-12-09T06:48:01.850Z,94743.66
2022-12-09T06:50:35.593Z,94745.06
2022-12-09T06:53:09.536Z,94742.28
2022-12-09T06:55:42.860Z,94746.47
2022-12-09T06:58:17.490Z,94751.78
2022-12-09T07:00:51.115Z,94746.38
2022-12-09T07:03:24.620Z,94743.72
2022-12-09T07:05:58.591Z,94743.28
2022-12-09T07:08:32.222Z,94740.16
2022-12-09T07:11:05.990Z,94731.78
2022-12-09T07:13:40.595Z,94735.19
2022-12-09T07:16:15.869Z,94740.03
2022-12-09T07:18:49.621Z,94734.00
2022-12-09T07:21:24.744Z,94738.50
2022-12-09T07:24:00.881Z,94743.03
2022-12-09T07:26:35.805Z,94747.53
2022-12-09T07:29:10.507Z,94745.66
2022-12-09T07:31:45.324Z,94745.97
2022-12-09T07:34:20.285Z,94740.56
2022-12-09T07:36:53.967Z,94741.66
2022-12-09T07:39:28.648Z,94733.28
2022-12-09T07:42:02.245Z,94736.25
2022-12-09T07:44:37.096Z,94735.94
2022-12-09T07:47:10.220Z,94741.84
2022-12-09T07:49:43.803Z,94735.78
2022-12-09T07:52:16.958Z,94736.56
2022-12-09T07:54:50.507Z,94739.53
2022-12-09T07:57:23.808Z,94736.88
2022-12-09T07:59:58.223Z,94731.91
2022-12-09T08:02:31.336Z,94733.78
2022-12-09T08:05:05.336Z,94735.22
2022-12-09T08:07:43.894Z,94739.06
2022-12-09T08:10:18.074Z,94733.34
2022-12-09T08:12:53.587Z,94733.78
2022-12-09T08:15:28.038Z,94720.25
2022-12-09T08:18:01.227Z,94724.75
2022-12-09T08:20:34.739Z,94724.75
2022-12-09T08:23:08.974Z,94720.25
2022-12-09T08:25:42.023Z,94714.63
2022-12-09T08:28:15.179Z,94716.97
2022-12-09T08:30:50.440Z,94717.72
2022-12-09T08:33:24.506Z,94730.19
2022-12-09T08:35:57.588Z,94724.13
2022-12-09T08:38:32.039Z,94727.66
2022-12-09T08:41:11.176Z,94727.34
2022-12-09T08:43:45.708Z,94722.34
2022-12-09T08:46:20.451Z,94717.06
2022-12-09T08:48:53.825Z,94717.06
2022-12-09T08:51:26.835Z,94722.03
2022-12-09T08:54:01.520Z,94717.84
2022-12-09T08:56:34.726Z,94717.06
2022-12-09T08:59:08.372Z,94711.34
2022-12-09T09:01:43.048Z,94707.94
2022-12-09T09:04:18.130Z,94708.38
2022-12-09T09:06:52.907Z,94707.94
2022-12-09T09:09:26.886Z,94718.50
2022-12-09T09:12:00.539Z,94703.75
2022-12-09T09:14:34.213Z,94719.59
2022-12-09T09:17:09.332Z,94723.03
2022-12-09T09:19:42.702Z,94719.28
2022-12-09T09:22:15.848Z,94719.72
2022-12-09T09:24:49.048Z,94718.00
2022-12-09T09:27:22.430Z,94723.72
2022-12-09T09:29:55.685Z,94726.94
2022-12-09T09:32:30.442Z,94713.50
2022-12-09T09:35:04.336Z,94717.72
2022-12-09T09:37:37.697Z,94709.44
2022-12-09T09:40:12.713Z,94716.44
2022-12-09T09:42:51.160Z,94714.22
2022-12-09T09:45:26.226Z,94704.41
2022-12-09T09:48:03.866Z,94698.81
2022-12-09T09:50:44.548Z,94703.00
2022-12-09T09:53:23.465Z,94708.41
2022-12-09T09:56:00.690Z,94700.91
2022-12-09T09:58:40.639Z,94701.03
2022-12-09T10:01:15.801Z,94693.25
2022-12-09T10:03:59.190Z,94697.09
2022-12-09T10:06:42.429Z,94697.22
2022-12-09T10:09:25.792Z,94692.81
2022-12-09T10:12:03.052Z,94688.75
2022-12-09T10:14:45.784Z,94679.84
2022-12-09T10:17:27.280Z,94685.22
2022-12-09T10:20:12.839Z,94683.81
2022-12-09T10:22:53.226Z,94672.91
2022-12-09T10:25:28.569Z,94675.22
2022-12-09T10:28:09.389Z,94668.47
2022-12-09T10:30:45.026Z,94670.34
2022-12-09T10:33:20.084Z,94659.88
2022-12-09T10:35:55.612Z,94657.38
2022-12-09T10:38:31.629Z,94660.44
2022-12-09T10:41:11.109Z,94655.28
2022-12-09T10:43:44.261Z,94650.75
2022-12-09T10:46:24.519Z,94655.72
2022-12-09T10:49:02.228Z,94654.50
2022-12-09T10:51:39.650Z,94651.84
2022-12-09T10:54:22.459Z,94651.84
2022-12-09T10:57:08.335Z,94650.28
2022-12-09T10:59:43.740Z,94643.13
2022-12-09T11:02:22.080Z,94637.84
2022-12-09T11:04:55.916Z,94636.28
2022-12-09T11:07:30.698Z,94638.59
2022-12-09T11:10:18.478Z,94638.94
2022-12-09T11:12:54.652Z,94634.75
2022-12-09T11:15:33.338Z,94631.31
2022-12-09T11:18:08.836Z,94630.91
2022-12-09T11:20:42.326Z,94629.34
2022-12-09T11:23:19.724Z,94627.47
2022-12-09T11:25:55.669Z,94624.38
2022-12-09T11:28:31.183Z,94615.34
2022-12-09T11:34:04.620Z,94611.16
2022-12-09T11:36:44.343Z,94614.56
2022-12-09T11:39:25.043Z,94606.63
2022-12-09T11:42:19.000Z,94613.88
2022-12-09T11:44:57.839Z,94612.13
2022-12-09T11:47:57.300Z,94608.84
2022-12-09T11:50:31.975Z,94612.03
2022-12-09T11:53:19.160Z,94609.16
2022-12-09T11:55:57.522Z,94609.59
2022-12-09T11:58:35.972Z,94604.28
2022-12-09T12:01:13.626Z,94607.38
2022-12-09T12:03:49.020Z,94607.06
2022-12-09T12:06:25.082Z,94605.59
2022-12-09T12:09:04.186Z,94598.03
2022-12-09T12:11:46.276Z,94598.44
2022-12-09T12:14:24.302Z,94601.53
2022-12-09T12:17:06.118Z,94607.28
2022-12-09T12:19:40.344Z,94608.50
2022-12-09T12:22:28.845Z,94601.44
2022-12-09T12:25:24.255Z,94607.72
2022-12-09T12:28:29.629Z,94605.63
2022-12-09T12:31:21.129Z,94605.06
2022-12-09T12:37:10.779Z,94598.09
2022-12-09T12:40:07.113Z,94599.31
2022-12-09T12:43:07.865Z,94601.28
2022-12-09T12:46:15.166Z,94603.13
2022-12-09T12:49:02.647Z,94599.38
2022-12-09T12:51:49.735Z,94602.38
2022-12-09T12:54:42.355Z,94598.53
2022-12-09T12:57:24.072Z,94601.06
2022-12-09T13:00:02.696Z,94602.50
2022-12-09T13:02:46.904Z,94600.53
2022-12-09T13:05:23.451Z,94602.75
2022-12-09T13:08:00.808Z,94605.28
2022-12-09T13:10:39.583Z,94604.84
2022-12-09T13:13:30.185Z,94609.38
2022-12-09T13:16:19.397Z,94617.34
2022-12-09T13:18:52.874Z,94617.66
2022-12-09T13:21:27.407Z,94618.75
2022-12-09T13:24:09.653Z,94618.00
2022-12-09T13:26:51.609Z,94618.75
2022-12-09T13:29:36.043Z,94624.06
2022-12-09T13:32:22.576Z,94616.44
2022-12-09T13:35:04.211Z,94622.44
2022-12-09T13:38:00.875Z,94619.66
2022-12-09T13:40:36.856Z,94623.06
2022-12-09T13:43:19.830Z,94629.16
2022-12-09T13:45:57.023Z,94623.41
2022-12-09T13:48:47.558Z,94622.97
2022-12-09T13:51:22.968Z,94628.13
2022-12-09T13:54:06.930Z,94622.84
2022-12-09T13:56:40.970Z,94627.25
2022-12-09T13:59:41.338Z,94631.75
2022-12-09T14:02:22.821Z,94633.97
2022-12-09T14:05:08.742Z,94636.63
2022-12-09T14:07:47.553Z,94648.75
2022-12-09T14:10:44.300Z,94637.50
2022-12-09T14:13:26.412Z,94643.59
2022-12-09T14:16:17.799Z,94649.66
2022-12-09T14:18:52.756Z,94648.44
2022-12-09T14:21:29.365Z,94653.41
2022-12-09T14:24:42.309Z,94663.22
2022-12-09T14:27:19.879Z,94651.06
2022-12-09T14:29:56.112Z,94659.34
2022-12-09T14:32:31.893Z,94664.88
2022-12-09T14:35:22.738Z,94662.88
2022-12-09T14:38:05.717Z,94671.50
2022-12-09T14:40:59.228Z,94680.41
2022-12-09T14:44:13.670Z,94681.84
2022-12-09T14:46:54.254Z,94681.09
2022-12-09T14:49:30.629Z,94684.06
2022-12-09T14:52:11.315Z,94681.41
2022-12-09T14:54:47.118Z,94685.94
2022-12-09T14:57:25.666Z,94693.88
2022-12-09T14:59:58.959Z,94694.97
2022-12-09T15:02:33.572Z,94704.47
2022-12-09T15:05:18.813Z,94694.66
2022-12-09T15:07:52.226Z,94703.38
2022-12-09T15:10:36.751Z,94700.06
2022-12-09T15:13:10.426Z,94703.47
2022-12-09T15:15:45.080Z,94701.72
2022-12-09T15:18:22.917Z,94703.69
2022-12-09T15:20:58.074Z,94702.28
2022-12-09T15:23:32.551Z,94711.91
2022-12-09T15:26:07.953Z,94713.88
2022-12-09T15:28:48.791Z,94711.47
2022-12-09T15:31:23.489Z,94716.00
2022-12-09T15:34:00.084Z,94719.97
2022-12-09T15:36:37.806Z,94717.00
2022-12-09T15:39:14.585Z,94719.31
2022-12-09T15:42:09.515Z,94719.44
2022-12-09T15:44:47.481Z,94719.44
2022-12-09T15:47:24.707Z,94718.97
2022-12-09T15:50:03.605Z,94719.75
2022-12-09T15:52:42.670Z,94725.38
2022-12-09T15:55:19.401Z,94727.59
2022-12-09T15:57:56.185Z,94726.06
2022-12-09T16:00:29.697Z,94725.59
2022-12-09T16:03:02.831Z,94724.50
2022-12-09T16:05:42.030Z,94722.63
2022-12-09T16:08:15.357Z,94720.75
2022-12-09T16:10:50.067Z,94728.38
2022-12-09T16:13:23.286Z,94732.91
2022-12-09T16:15:58.005Z,94750.78
2022-12-09T16:18:36.723Z,94745.59
2022-12-09T16:21:27.953Z,94736.22
2022-12-09T16:24:08.380Z,94734.31
2022-12-09T16:26:47.679Z,94736.66
2022-12-09T16:29:27.215Z,94737.88
2022-12-09T16:32:20.841Z,94733.34
2022-12-09T16:34:56.086Z,94740.19
2022-12-09T16:37:37.876Z,94737.53
2022-12-09T16:40:37.637Z,94739.41
2022-12-09T16:43:22.102Z,94745.59
2022-12-09T16:45:56.948Z,94748.22
2022-12-09T16:48:31.667Z,94750.47
2022-12-09T16:51:11.116Z,94753.88
2022-12-09T16:53:47.720Z,94753.13
2022-12-09T16:56:22.569Z,94756.88
2022-12-09T16:58:56.340Z,94759.84
2022-12-09T17:01:33.945Z,94765.59
2022-12-09T17:04:14.924Z,94761.06
2022-12-09T17:06:48.124Z,94751.13
2022-12-09T17:09:22.571Z,94761.72
2022-12-09T17:11:55.700Z,94773.88
2022-12-09T17:14:29.077Z,94762.81
2022-12-09T17:17:02.998Z,94761.38
2022-12-09T17:19:36.401Z,94761.06
2022-12-09T17:22:09.591Z,94759.97
2022-12-09T17:24:43.934Z,94755.84
2022-12-09T17:27:17.061Z,94749.78
2022-12-09T17:29:49.938Z,94757.84
2022-12-09T17:32:24.449Z,94755.97
2022-12-09T17:34:57.572Z,94765.16
2022-12-09T17:37:30.500Z,94759.84
2022-12-09T17:40:05.262Z,94772.44
2022-12-09T17:42:38.520Z,94759.19
2022-12-09T17:45:11.375Z,94760.06
2022-12-09T17:47:45.280Z,94751.34
2022-12-09T17:50:18.344Z,94764.28
2022-12-09T17:52:51.467Z,94756.31
2022-12-09T17:55:27.139Z,94761.72
2022-12-09T17:58:00.034Z,94758.97
2022-12-09T18:00:33.944Z,94755.53
2022-12-09T18:03:07.432Z,94756.31
2022-12-09T18:05:40.864Z,94770.34
2022-12-09T18:08:14.020Z,94768.78
2022-12-09T18:10:48.460Z,94769.56
2022-12-09T18:13:21.455Z,94780.16
2022-12-09T18:15:54.608Z,94779.81
2022-12-09T18:18:29.373Z,94782.16
2022-12-09T18:21:02.743Z,94776.50
2022-12-09T18:23:35.844Z,94782.59
2022-12-09T18:26:12.299Z,94784.13
2022-12-09T18:28:46.689Z,94786.00
2022-12-09T18:31:20.451Z,94789.13
2022-12-09T18:33:54.513Z,94792.09
2022-12-09T18:36:29.874Z,94798.94
2022-12-09T18:39:03.161Z,94805.03
2022-12-09T18:41:37.740Z,94799.41
2022-12-09T18:44:12.356Z,94801.69
2022-12-09T18:46:48.914Z,94791.84
2022-12-09T18:49:23.886Z,94790.75
2022-12-09T18:51:57.163Z,94799.16
2022-12-09T18:54:32.472Z,94796.50
2022-12-09T18:57:07.470Z,94796.63
2022-12-09T18:59:40.585Z,94787.13
2022-12-09T19:02:15.810Z,94786.03
2022-12-09T19:04:48.962Z,94795.50
2022-12-09T19:07:22.333Z,94789.09
2022-12-09T19:09:57.349Z,94795.16
2022-12-09T19:12:46.915Z,94799.38
2022-12-09T19:15:20.760Z,94799.81
2022-12-09T19:17:53.930Z,94814.31
2022-12-09T19:20:28.387Z,94801.03
2022-12-09T19:23:02.324Z,94804.13
2022-12-09T19:25:35.919Z,94815.16
2022-12-09T19:28:14.258Z,94808.75
2022-12-09T19:30:49.978Z,94811.88
2022-12-09T19:33:23.142Z,94808.09
2022-12-09T19:35:56.086Z,94805.13
2022-12-09T19:38:29.272Z,94816.16
2022-12-09T19:41:02.542Z,94815.06
2022-12-09T19:43:37.264Z,94812.72
2022-12-09T19:46:12.989Z,94813.09
2022-12-09T19:48:46.244Z,94814.59
2022-12-09T19:51:21.092Z,94807.00
2022-12-09T19:53:55.058Z,94813.09
2022-12-09T19:56:28.280Z,94820.16
2022-12-09T19:59:02.766Z,94822.03
2022-12-09T20:01:39.315Z,94816.97
2022-12-09T20:04:46.868Z,94818.38
2022-12-09T20:07:08.623Z,94813.72
2022-12-09T20:09:41.573Z,94823.91
2022-12-09T20:12:14.769Z,94828.31
2022-12-09T20:14:49.256Z,94828.97
2022-12-09T20:17:22.270Z,94836.50
2022-12-09T20:19:55.134Z,94836.06
2022-12-09T20:22:28.307Z,94835.59
2022-12-09T20:25:01.330Z,94835.47
2022-12-09T20:27:35.376Z,94840.00
2022-12-09T20:30:12.067Z,94836.69
2022-12-09T20:32:45.010Z,94831.31
2022-12-09T20:35:18.948Z,94843.00
2022-12-09T20:37:52.040Z,94849.09
2022-12-09T20:40:25.320Z,94840.69
2022-12-09T20:42:59.236Z,94843.97
2022-12-09T20:45:33.733Z,94856.78
2022-12-09T20:48:07.752Z,94857.91
2022-12-09T20:50:40.870Z,94855.44
2022-12-09T20:53:13.678Z,94864.50
2022-12-09T20:55:56.841Z,94852.03
2022-12-09T20:58:30.259Z,94858.44
2022-12-09T21:01:08.963Z,94859.66
2022-12-09T21:03:42.908Z,94850.81
2022-12-09T21:06:17.539Z,94851.56
2022-12-09T21:08:51.506Z,94856.09
2022-12-09T21:11:26.195Z,94859.53
2022-12-09T21:14:02.679Z,94860.19
2022-12-09T21:16:40.583Z,94865.19
2022-12-09T21:19:16.599Z,94868.47
2022-12-09T21:21:50.770Z,94869.91
2022-12-09T21:24:24.754Z,94863.41
2022-12-09T21:26:57.796Z,94867.78
2022-12-09T21:29:32.439Z,94864.69
2022-12-09T21:32:07.091Z,94869.19
2022-12-09T21:34:40.315Z,94871.06
2022-12-09T21:37:16.009Z,94871.06
2022-12-09T21:39:49.005Z,94874.97
2022-12-09T21:42:21.969Z,94877.75
2022-12-09T21:44:54.895Z,94861.84
2022-12-09T21:47:29.348Z,94868.03
2022-12-09T21:50:02.245Z,94870.03
2022-12-09T21:52:35.436Z,94865.59
2022-12-09T21:55:08.891Z,94869.81
2022-12-09T21:57:42.148Z,94870.25
2022-12-09T22:00:15.777Z,94874.47
2022-12-09T22:02:54.463Z,94869.59
2022-12-09T22:05:27.652Z,94867.59
2022-12-09T22:08:01.750Z,94878.97
2022-12-09T22:10:40.513Z,94880.22
2022-12-09T22:13:14.086Z,94876.78
2022-12-09T22:15:47.106Z,94875.22
2022-12-09T22:18:21.588Z,94876.78
2022-12-09T22:21:23.537Z,94872.91
2022-12-09T22:23:48.096Z,94871.03
2022-12-09T22:26:22.324Z,94868.69
2022-12-09T22:28:55.752Z,94880.06
2022-12-09T22:31:31.479Z,94880.84
2022-12-09T22:34:09.125Z,94889.25
2022-12-09T22:36:42.255Z,94881.63
2022-12-09T22:39:16.210Z,94890.34
2022-12-09T22:41:49.276Z,94894.56
2022-12-09T22:44:22.397Z,94893.47
2022-12-09T22:46:55.577Z,94894.25
2022-12-09T22:49:30.466Z,94887.06
2022-12-09T22:52:03.662Z,94892.00
2022-12-09T22:54:37.128Z,94899.53
2022-12-09T22:57:10.463Z,94898.41
2022-12-09T22:59:43.498Z,94898.75
2022-12-09T23:02:16.681Z,94903.28
2022-12-09T23:04:52.032Z,94897.97
2022-12-09T23:07:25.096Z,94900.97
2022-12-09T23:09:58.045Z,94901.28
2022-12-09T23:12:30.948Z,94902.38
2022-12-09T23:15:04.018Z,94900.81
2022-12-09T23:17:37.551Z,94898.94
2022-12-09T23:20:13.530Z,94897.84
2022-12-09T23:22:46.635Z,94897.06
2022-12-09T23:25:19.891Z,94895.84
2022-12-09T23:27:53.086Z,94878.44
2022-12-09T23:30:26.582Z,94879.63
2022-12-09T23:32:59.468Z,94878.53
2022-12-09T23:35:38.563Z,94876.78
2022-12-09T23:38:11.599Z,94874.91
2022-12-09T23:40:51.786Z,94876.88
2022-12-09T23:43:25.326Z,94882.63
2022-12-09T23:46:02.176Z,94880.44
2022-12-09T23:48:36.955Z,94873.72
2022-12-09T23:51:13.263Z,94876.47
2022-12-09T23:53:50.267Z,94874.25
2022-12-09T23:56:25.502Z,94869.84
2022-12-09T23:59:00.375Z,94872.06
